Flight Track Log - Related Links

Times and Time Zones

All times are in EDT time to prevent confusion due to time zone crossing. See the AAL1138 flight status page for this flight to view local times or setup timezone preferences in your user account.

Time Position Orientation Groundspeed Altitude Reporting Facility
EDT Latitude Longitude Course Direction KTS MPH feet Rate Location/Type
Wed 04:56:00 PM 18.7019 -69.8481 328° Northwest  Level FlightAware Approximate
Wed 04:57:00 PM 18.7927 -69.9079 328° Northwest  Level FlightAware Approximate
Wed 04:58:00 PM 18.8834 -69.9678 328° Northwest  Level FlightAware Approximate
Wed 04:59:00 PM 18.9740 -70.0278 328° Northwest  Level FlightAware Approximate
Wed 05:00:00 PM 19.0647 -70.0878 328° Northwest  Level FlightAware Approximate
Wed 05:01:00 PM 19.1446 -70.1418 325° Northwest  Level FlightAware Approximate
Wed 05:02:00 PM 19.2319 -70.2072 325° Northwest  Level FlightAware Approximate
Wed 05:03:00 PM 19.3192 -70.2727 325° Northwest  Level FlightAware Approximate
Wed 05:04:00 PM 19.4088 -70.3345 327° Northwest  Level FlightAware Approximate
Wed 05:05:00 PM 19.4989 -70.3957 327° Northwest  Level FlightAware Approximate
Wed 05:06:00 PM 19.5889 -70.4569 327° Northwest  Level FlightAware Approximate
Wed 05:07:00 PM 19.6790 -70.5182 327° Northwest  Level FlightAware Approximate
Wed 05:08:00 PM 19.7679 -70.5813 322° Northwest  Level FlightAware Approximate
Wed 05:09:00 PM 19.8525 -70.6508 322° Northwest  Level FlightAware Approximate
Wed 05:09:16 PM 19.6094 -70.3017 322° Northwest 461 531 36,000  Level Miami Center
Wed 05:10:00 PM 19.9371 -70.7204 322° Northwest  Level FlightAware Approximate
Wed 05:10:16 PM 19.6917 -70.3792 318° Northwest 434 499 36,000  Level Miami Center
Wed 05:11:00 PM 20.0217 -70.7901 322° Northwest  Level FlightAware Approximate
Wed 05:11:16 PM 19.7703 -70.4636 315° West 407 468 36,000  Level Miami Center
Wed 05:12:00 PM 20.1063 -70.8598 322° Northwest  Level FlightAware Approximate
Wed 05:12:16 PM 19.8506 -70.5458 316° Northwest 407 468 36,000  Level Miami Center
Wed 05:13:00 PM 20.1908 -70.9296 322° Northwest  Level FlightAware Approximate
Wed 05:13:16 PM 19.9289 -70.6283 315° West 402 463 36,000  Level Miami Center
Wed 05:14:16 PM 20.0111 -70.7083 318° Northwest 397 457 36,000  Level Miami Center
Wed 05:15:16 PM 20.0917 -70.7928 315° West 403 464 36,000  Level Miami Center
Wed 05:16:16 PM 20.1719 -70.8756 316° Northwest 403 464 36,000  Level Miami Center
Wed 05:17:16 PM 20.2542 -70.9581 317° Northwest 403 464 36,000  Level Miami Center
Wed 05:18:16 PM 20.3344 -71.0431 315° West 398 458 36,000  Level Miami Center
Wed 05:19:16 PM 20.4147 -71.1281 315° West 398 458 36,000  Level Miami Center
Wed 05:20:16 PM 20.4786 -71.2228 306° West 398 458 36,000  Level Miami Center
Wed 05:21:16 PM 20.5383 -71.3175 304° West 398 458 36,000  Level Miami Center
Wed 05:22:16 PM 20.5961 -71.4150 302° West 398 458 36,000  Level Miami Center
Wed 05:23:16 PM 20.6578 -71.5122 304° West 393 452 36,000  Level Miami Center
Wed 05:24:16 PM 20.7153 -71.6031 304° West 386 444 36,000  Level Miami Center
Wed 05:25:16 PM 20.7747 -71.6983 304° West 386 444 36,000  Level Miami Center
Wed 05:26:16 PM 20.8342 -71.7936 304° West 386 444 36,000  Level Miami Center
Wed 05:27:16 PM 20.8981 -71.8978 303° West 386 444 36,000  Level Miami Center
Wed 05:28:16 PM 20.9572 -71.9933 304° West 386 444 36,000  Level Miami Center
Wed 05:29:16 PM 21.0167 -72.0911 303° West 386 444 36,000  Level Miami Center
Wed 05:30:16 PM 21.0758 -72.1847 304° West 386 444 36,000  Level Miami Center
Wed 05:31:16 PM 21.1331 -72.2828 302° West 386 444 36,000  Level Miami Center
Wed 05:32:16 PM 21.1944 -72.3786 305° West 386 444 36,000  Level Miami Center
Wed 05:33:16 PM 21.2533 -72.4722 304° West 386 444 36,000  Level Miami Center
Wed 05:34:16 PM 21.3106 -72.5728 301° West 386 444 36,000  Level Miami Center
Wed 05:35:16 PM 21.3714 -72.6667 305° West 386 444 36,000  Level Miami Center
Wed 05:36:16 PM 21.4347 -72.7650 305° West 386 444 36,000  Level Miami Center
Wed 05:37:16 PM 21.4872 -72.8636 300° West 386 444 36,000  Level Miami Center
Wed 05:38:16 PM 21.5503 -72.9622 305° West 391 450 36,000  Level Miami Center
Wed 05:39:16 PM 21.6092 -73.0589 303° West 391 450 36,000  Level Miami Center
Wed 05:40:16 PM 21.6681 -73.1597 302° West 391 450 36,000  Level Miami Center
Wed 05:41:16 PM 21.7267 -73.2586 303° West 391 450 36,000  Level Miami Center
Wed 05:42:16 PM 21.7917 -73.3575 305° West 396 456 36,000  Level Miami Center
Wed 05:43:16 PM 21.8483 -73.4589 301° West 401 461 36,000  Level Miami Center
Wed 05:44:16 PM 21.9089 -73.5581 303° West 401 461 36,000  Level Miami Center
Wed 05:45:16 PM 21.9694 -73.6594 303° West 401 461 36,000  Level Miami Center
Wed 05:46:16 PM 22.0217 -73.7589 300° West 396 456 36,000  Level Miami Center
Wed 05:47:16 PM 22.0822 -73.8583 303° West 396 456 36,000  Level Miami Center
Wed 05:48:16 PM 22.1406 -73.9558 303° West 396 456 36,000  Level Miami Center
Wed 05:49:16 PM 22.2008 -74.0575 303° West 396 456 36,000  Level Miami Center
Wed 05:50:16 PM 22.2611 -74.1572 303° West 396 456 36,000  Level Miami Center
Wed 05:51:16 PM 22.3214 -74.2614 302° West 401 461 36,000  Level Miami Center
Wed 05:52:16 PM 22.3836 -74.3636 303° West 401 461 36,000  Level Miami Center
Wed 05:53:16 PM 22.4458 -74.4678 303° West 406 467 36,000  Level Miami Center
Wed 05:54:16 PM 22.5103 -74.5747 303° West 412 474 36,000  Level Miami Center
Wed 05:55:16 PM 22.5703 -74.6817 301° West 412 474 36,000  Level Miami Center
Wed 05:56:16 PM 22.6300 -74.7750 305° West 417 480 36,000  Level Miami Center
Wed 05:57:16 PM 22.6922 -74.8844 302° West 423 487 36,000  Level Miami Center
Wed 05:58:16 PM 22.7564 -74.9961 302° West 423 487 36,000  Level Miami Center
Wed 05:59:16 PM 22.8203 -75.1033 303° West 423 487 36,000  Level Miami Center
Wed 06:00:16 PM 22.8819 -75.2106 302° West 423 487 36,000  Level Miami Center
Wed 06:01:16 PM 22.9439 -75.3181 302° West 423 487 36,000  Level Miami Center
Wed 06:02:16 PM 23.0075 -75.4258 303° West 423 487 36,000  Level Miami Center
Wed 06:03:16 PM 23.0669 -75.5333 301° West 423 487 36,000  Level Miami Center
Wed 06:04:16 PM 23.1264 -75.6389 301° West 423 487 36,000  Level Miami Center
Wed 06:05:16 PM 23.1900 -75.7469 303° West 423 487 36,000  Level Miami Center
Wed 06:06:16 PM 23.2514 -75.8550 302° West 423 487 36,000  Level Miami Center
Wed 06:07:16 PM 23.3147 -75.9653 302° West 423 487 36,000  Level Miami Center
Wed 06:08:16 PM 23.3781 -76.0756 302° West 423 487 36,000  Level Miami Center
Wed 06:09:16 PM 23.4475 -76.1931 303° West 423 487 36,000  Level Miami Center
Wed 06:10:16 PM 23.5108 -76.3039 302° West 423 487 36,000  Level Miami Center
Wed 06:11:16 PM 23.5739 -76.4144 302° West 423 487 36,000  Level Miami Center
Wed 06:12:16 PM 23.6367 -76.5256 302° West 423 487 36,000  Level Miami Center
Wed 06:13:16 PM 23.6997 -76.6364 302° West 428 493 36,000  Level Miami Center
Wed 06:14:16 PM 23.7625 -76.7475 302° West 428 493 36,000  Level Miami Center
Wed 06:15:16 PM 23.8253 -76.8589 302° West 428 493 36,000  Level Miami Center
Wed 06:16:16 PM 23.8878 -76.9703 302° West 423 487 36,000  Level Miami Center
Wed 06:17:16 PM 23.9400 -77.0658 301° West 416 479 36,000  Level Miami Center
Wed 06:18:16 PM 24.0025 -77.1750 302° West 421 484 36,000  Level Miami Center
Wed 06:19:16 PM 24.0650 -77.2889 301° West 426 490 36,000  Level Miami Center
Wed 06:20:16 PM 24.1272 -77.4031 301° West 426 490 36,000  Level Miami Center
Wed 06:21:16 PM 24.1875 -77.5128 301° West 426 490 36,000  Level Miami Center
Wed 06:22:16 PM 24.2497 -77.6247 301° West 426 490 36,000  Level Miami Center
Wed 06:23:16 PM 24.3097 -77.7367 300° West 426 490 36,000  Level Miami Center
Wed 06:24:16 PM 24.3717 -77.8467 302° West 426 490 36,000  Level Miami Center
Wed 06:25:16 PM 24.4336 -77.9589 301° West 426 490 36,000  Level Miami Center
Wed 06:26:16 PM 24.4933 -78.0692 301° West 426 490 36,000  Level Miami Center
Wed 06:27:16 PM 24.5592 -78.1886 301° West 426 490 36,000  Level Miami Center
Wed 06:28:16 PM 24.6208 -78.2989 302° West 426 490 36,000  Level Miami Center
Wed 06:29:16 PM 24.6825 -78.4117 301° West 426 490 36,000 -50 Level Miami Center
Wed 06:30:16 PM 24.7417 -78.5247 300° West 426 490 35,900 -1,050 Descending Miami Center
Wed 06:31:16 PM 24.8053 -78.6400 301° West 426 490 33,900 -1,850 Descending Miami Center
Wed 06:32:16 PM 24.8664 -78.7553 300° West 431 496 32,200 -1,950 Descending Miami Center
Wed 06:33:16 PM 24.9339 -78.8686 303° West 437 503 30,000 -2,150 Descending Miami Center
Wed 06:34:16 PM 24.9889 -78.9706 301° West 437 503 27,900 -2,150 Descending Miami Center
Wed 06:35:16 PM 25.0481 -79.0792 301° West 432 497 25,700 -1,900 Descending Miami Center
Wed 06:36:16 PM 25.1047 -79.1858 300° West 421 484 24,100 -850 Descending Miami Center
Wed 06:37:16 PM 25.1536 -79.2808 300° West 388 447 24,000 -400 Descending Miami Center
Wed 06:38:16 PM 25.2042 -79.3736 301° West 370 426 23,300 -1,150 Descending Miami Center
Wed 06:39:16 PM 25.2211 -79.4753 280° West 348 400 21,700 -1,450 Descending Miami Center
Wed 06:40:16 PM 25.1925 -79.5664 251° West 314 361 20,400 -1,605 Descending Miami Center
Wed 06:40:42 PM 25.1789 -79.6142 253° West 300 345 19,400 -1,700 Descending Miami Center
Wed 06:41:16 PM 25.1950 -79.6583 292° West 308 354 18,700 -1,701 Descending Miami Center
Wed 06:41:49 PM 25.2467 -79.6869 333° Northwest 326 375 17,500 -1,700 Descending Miami Center
Wed 06:42:16 PM 25.2756 -79.6992 339° North 266 306 17,000 -1,574 Descending Miami Center
Wed 06:42:50 PM 25.3381 -79.7144 348° North 322 371 15,900 -1,500 Descending Miami Center
Wed 06:43:16 PM 25.3628 -79.7219 345° North 277 319 15,500 -1,527 Descending Miami Center
Wed 06:43:45 PM 25.4042 -79.7528 326° Northwest 296 341 14,500 -1,500 Descending Miami Center
Wed 06:44:16 PM 25.4267 -79.7764 317° Northwest 288 331 14,000 -1,475 Descending Miami Center
Wed 06:44:46 PM 25.4528 -79.8275 300° West 289 333 13,000 -1,600 Descending Miami Center
Wed 06:45:16 PM 25.4731 -79.8511 314° West 283 326 12,400 -1,574 Descending Miami Center
Wed 06:45:47 PM 25.5014 -79.8978 304° West 289 333 11,400 -1,500 Descending Miami Center
Wed 06:46:16 PM 25.5217 -79.9236 311° West 288 331 10,900 -1,377 Descending Miami Center
Wed 06:46:48 PM 25.5478 -79.9728 300° West 286 329 10,000 -1,000 Descending Miami Center
Wed 06:47:16 PM 25.5664 -79.9917 318° Northwest 288 331 9,900  Descending Miami Center
Wed 06:47:49 PM 25.5944 -80.0406 302° West 284 327 10,000 100 Climbing Miami Center
Wed 06:48:16 PM 25.6189 -80.0711 312° West 288 331 10,000 -88 Level Miami Center
Wed 06:48:57 PM 25.6492 -80.1206 304° West 286 329 9,900 -600 Descending Miami Center
Wed 06:49:16 PM 25.6611 -80.1439 300° West 288 331 9,400 -1,102 Descending Miami Center
Wed 06:49:46 PM 25.6708 -80.1833 285° West 280 322 9,000 -800 Descending Miami Center
Wed 06:50:16 PM 25.6844 -80.2228 291° West 277 319 8,600 -896 Descending Miami Center
Wed 06:50:53 PM 25.6917 -80.2692 280° West 238 274 8,000 -2,022 Descending Miami Center
Wed 06:51:48 PM 25.7069 -80.3319 285° West 219 252 5,500 -2,410 Descending Miami Center
Wed 06:52:55 PM 25.7031 -80.4078 267° West 227 261 3,100 -1,163 Descending Miami Center
Wed 06:53:57 PM 25.7100 -80.4681 277° West 178 205 3,000 -49 Descending Miami Center
Wed 06:54:58 PM 25.7447 -80.5014 319° Northwest 185 213 3,000  Level Miami Center

Login

Don't have an account? Register now (free) for customized features, flight alerts, and more!